Weather at Long Semado Airport

Public forecast

Using degrees Celsius for public forecast. Weather courtesy of forecast.io.

Closest aviation weather report (METAR) to Long Semado Airport

Closest report is Brunei International Airport, 59.4 nm (109.9 km) NW. Retrieved 2022/08/10 16:30 UTC (22 minutes ago):

WBSB 101630Z 34001KT 9999 FEW014 SCT140 BKN280 27/27 Q1010 NOSIG

Closest aviation forecast (TAF) to Long Semado Airport

Closest forecast is Brunei International Airport, 59.4 nm (109.9 km) NW. Retrieved 2022/08/10 12:12 UTC (5 hours ago):

TAF WBSB 101050Z 1012/1118 32006KT 9999 FEW015 BECMG 1016/1018 04003KT SCT014 FEW015CB TEMPO 1018/1020 8000 -SHRA